sensor_id;sensor_type;location;lat;lon;timestamp;temperature;humidity
12843;DHT22;35724;49.324;-123.118;2023-02-28T00:10:06;25.80;34.90
12843;DHT22;35724;49.324;-123.118;2023-02-28T00:20:14;25.90;33.80
12843;DHT22;35724;49.324;-123.118;2023-02-28T00:30:23;25.90;33.80
12843;DHT22;35724;49.324;-123.118;2023-02-28T00:40:31;25.90;33.70
12843;DHT22;35724;49.324;-123.118;2023-02-28T00:50:40;25.90;34.30
12843;DHT22;35724;49.324;-123.118;2023-02-28T01:00:47;26.00;33.40
12843;DHT22;35724;49.324;-123.118;2023-02-28T01:10:57;26.00;33.70
12843;DHT22;35724;49.324;-123.118;2023-02-28T01:21:05;26.00;35.40
12843;DHT22;35724;49.324;-123.118;2023-02-28T01:31:15;26.10;36.60
12843;DHT22;35724;49.324;-123.118;2023-02-28T01:41:24;26.30;37.00
12843;DHT22;35724;49.324;-123.118;2023-02-28T01:51:37;26.40;37.20
12843;DHT22;35724;49.324;-123.118;2023-02-28T02:01:45;26.50;37.70
12843;DHT22;35724;49.324;-123.118;2023-02-28T02:11:57;26.60;37.90
12843;DHT22;35724;49.324;-123.118;2023-02-28T02:22:31;26.70;38.30
12843;DHT22;35724;49.324;-123.118;2023-02-28T02:33:03;26.80;38.60
12843;DHT22;35724;49.324;-123.118;2023-02-28T02:43:17;26.80;38.50
12843;DHT22;35724;49.324;-123.118;2023-02-28T02:53:30;26.80;38.70
12843;DHT22;35724;49.324;-123.118;2023-02-28T03:03:47;26.80;38.70
12843;DHT22;35724;49.324;-123.118;2023-02-28T03:24:40;26.90;38.80
12843;DHT22;35724;49.324;-123.118;2023-02-28T03:34:59;26.90;39.20
12843;DHT22;35724;49.324;-123.118;2023-02-28T03:45:13;27.00;39.60
12843;DHT22;35724;49.324;-123.118;2023-02-28T03:55:21;27.00;40.20
12843;DHT22;35724;49.324;-123.118;2023-02-28T04:05:46;27.20;41.20
12843;DHT22;35724;49.324;-123.118;2023-02-28T04:15:55;27.20;42.50
12843;DHT22;35724;49.324;-123.118;2023-02-28T04:26:04;27.30;42.70
12843;DHT22;35724;49.324;-123.118;2023-02-28T04:36:11;27.30;42.60
12843;DHT22;35724;49.324;-123.118;2023-02-28T04:46:21;27.40;42.30
12843;DHT22;35724;49.324;-123.118;2023-02-28T04:56:31;27.40;41.80
12843;DHT22;35724;49.324;-123.118;2023-02-28T05:06:40;27.40;41.50
12843;DHT22;35724;49.324;-123.118;2023-02-28T05:16:47;27.40;40.90
12843;DHT22;35724;49.324;-123.118;2023-02-28T05:26:55;27.50;41.20
12843;DHT22;35724;49.324;-123.118;2023-02-28T05:37:03;27.50;41.00
12843;DHT22;35724;49.324;-123.118;2023-02-28T05:47:12;27.60;40.90
12843;DHT22;35724;49.324;-123.118;2023-02-28T05:57:20;27.70;40.80
12843;DHT22;35724;49.324;-123.118;2023-02-28T06:07:29;27.80;40.60
12843;DHT22;35724;49.324;-123.118;2023-02-28T06:17:36;27.80;40.60
12843;DHT22;35724;49.324;-123.118;2023-02-28T06:27:48;27.90;40.50
12843;DHT22;35724;49.324;-123.118;2023-02-28T06:37:55;27.90;40.30
12843;DHT22;35724;49.324;-123.118;2023-02-28T06:48:07;28.00;37.60
12843;DHT22;35724;49.324;-123.118;2023-02-28T06:58:15;27.90;36.50
12843;DHT22;35724;49.324;-123.118;2023-02-28T07:08:26;27.90;36.00
12843;DHT22;35724;49.324;-123.118;2023-02-28T07:18:33;27.80;35.70
12843;DHT22;35724;49.324;-123.118;2023-02-28T07:28:42;27.70;35.70
12843;DHT22;35724;49.324;-123.118;2023-02-28T07:38:50;27.70;35.90
12843;DHT22;35724;49.324;-123.118;2023-02-28T07:48:59;27.70;35.90
12843;DHT22;35724;49.324;-123.118;2023-02-28T07:59:08;27.70;35.90
12843;DHT22;35724;49.324;-123.118;2023-02-28T08:09:16;27.70;35.70
12843;DHT22;35724;49.324;-123.118;2023-02-28T08:19:24;27.70;35.70
12843;DHT22;35724;49.324;-123.118;2023-02-28T08:29:33;27.80;35.60
12843;DHT22;35724;49.324;-123.118;2023-02-28T08:39:40;27.80;35.40
12843;DHT22;35724;49.324;-123.118;2023-02-28T08:49:49;27.80;35.30
12843;DHT22;35724;49.324;-123.118;2023-02-28T08:59:59;27.90;35.30
12843;DHT22;35724;49.324;-123.118;2023-02-28T09:10:11;27.90;35.10
12843;DHT22;35724;49.324;-123.118;2023-02-28T09:20:18;27.90;35.00
12843;DHT22;35724;49.324;-123.118;2023-02-28T09:30:27;27.90;34.90
12843;DHT22;35724;49.324;-123.118;2023-02-28T09:40:37;27.90;34.70
12843;DHT22;35724;49.324;-123.118;2023-02-28T09:50:51;28.00;34.70
12843;DHT22;35724;49.324;-123.118;2023-02-28T10:01:05;28.00;34.60
12843;DHT22;35724;49.324;-123.118;2023-02-28T10:11:17;28.00;34.50
12843;DHT22;35724;49.324;-123.118;2023-02-28T10:21:28;28.00;35.00
12843;DHT22;35724;49.324;-123.118;2023-02-28T10:31:43;28.10;34.30
12843;DHT22;35724;49.324;-123.118;2023-02-28T10:41:50;28.10;34.20
12843;DHT22;35724;49.324;-123.118;2023-02-28T10:52:00;28.10;34.20
12843;DHT22;35724;49.324;-123.118;2023-02-28T11:02:32;28.10;34.10
12843;DHT22;35724;49.324;-123.118;2023-02-28T11:12:42;28.10;34.00
12843;DHT22;35724;49.324;-123.118;2023-02-28T11:22:57;28.10;33.90
12843;DHT22;35724;49.324;-123.118;2023-02-28T11:33:28;28.20;33.80
12843;DHT22;35724;49.324;-123.118;2023-02-28T11:43:45;28.20;33.70
12843;DHT22;35724;49.324;-123.118;2023-02-28T11:54:13;28.20;33.60
12843;DHT22;35724;49.324;-123.118;2023-02-28T12:04:28;28.20;33.40
12843;DHT22;35724;49.324;-123.118;2023-02-28T12:15:05;28.20;33.30
12843;DHT22;35724;49.324;-123.118;2023-02-28T12:25:37;28.30;33.30
12843;DHT22;35724;49.324;-123.118;2023-02-28T12:35:52;28.30;33.20
12843;DHT22;35724;49.324;-123.118;2023-02-28T12:46:07;28.30;33.10
12843;DHT22;35724;49.324;-123.118;2023-02-28T12:56:22;28.30;33.00
12843;DHT22;35724;49.324;-123.118;2023-02-28T13:06:45;28.30;32.90
12843;DHT22;35724;49.324;-123.118;2023-02-28T13:17:03;28.30;32.80
12843;DHT22;35724;49.324;-123.118;2023-02-28T13:27:33;28.30;32.70
12843;DHT22;35724;49.324;-123.118;2023-02-28T13:37:47;28.40;32.60
12843;DHT22;35724;49.324;-123.118;2023-02-28T13:48:00;28.40;32.60
12843;DHT22;35724;49.324;-123.118;2023-02-28T13:58:34;28.40;32.50
12843;DHT22;35724;49.324;-123.118;2023-02-28T14:08:52;28.40;32.40
12843;DHT22;35724;49.324;-123.118;2023-02-28T14:19:03;28.40;32.30
12843;DHT22;35724;49.324;-123.118;2023-02-28T14:39:52;28.50;32.10
12843;DHT22;35724;49.324;-123.118;2023-02-28T14:50:01;28.50;32.10
12843;DHT22;35724;49.324;-123.118;2023-02-28T15:00:16;28.50;32.00
12843;DHT22;35724;49.324;-123.118;2023-02-28T15:10:28;28.50;31.90
12843;DHT22;35724;49.324;-123.118;2023-02-28T15:20:39;28.50;31.50
12843;DHT22;35724;49.324;-123.118;2023-02-28T15:31:20;28.50;30.90
12843;DHT22;35724;49.324;-123.118;2023-02-28T15:41:31;28.40;31.10
12843;DHT22;35724;49.324;-123.118;2023-02-28T15:51:39;28.40;31.40
12843;DHT22;35724;49.324;-123.118;2023-02-28T16:02:03;28.30;31.80
12843;DHT22;35724;49.324;-123.118;2023-02-28T16:12:20;28.20;32.00
12843;DHT22;35724;49.324;-123.118;2023-02-28T16:22:29;28.20;32.20
12843;DHT22;35724;49.324;-123.118;2023-02-28T16:32:36;28.10;32.50
12843;DHT22;35724;49.324;-123.118;2023-02-28T16:42:46;28.10;32.90
12843;DHT22;35724;49.324;-123.118;2023-02-28T16:52:53;28.00;33.50
12843;DHT22;35724;49.324;-123.118;2023-02-28T17:03:03;28.10;34.20
12843;DHT22;35724;49.324;-123.118;2023-02-28T17:13:11;28.10;35.30
12843;DHT22;35724;49.324;-123.118;2023-02-28T17:23:20;28.20;36.10
12843;DHT22;35724;49.324;-123.118;2023-02-28T17:33:28;28.20;35.50
12843;DHT22;35724;49.324;-123.118;2023-02-28T17:43:37;28.10;35.60
12843;DHT22;35724;49.324;-123.118;2023-02-28T17:53:45;28.00;34.60
12843;DHT22;35724;49.324;-123.118;2023-02-28T18:03:59;28.00;32.90
12843;DHT22;35724;49.324;-123.118;2023-02-28T18:14:12;28.00;32.50
12843;DHT22;35724;49.324;-123.118;2023-02-28T18:24:25;28.10;32.10
12843;DHT22;35724;49.324;-123.118;2023-02-28T18:34:32;28.10;31.70
12843;DHT22;35724;49.324;-123.118;2023-02-28T18:44:42;28.10;31.70
12843;DHT22;35724;49.324;-123.118;2023-02-28T18:54:49;28.10;31.70
12843;DHT22;35724;49.324;-123.118;2023-02-28T19:04:58;28.20;32.10
12843;DHT22;35724;49.324;-123.118;2023-02-28T19:15:12;28.20;32.80
12843;DHT22;35724;49.324;-123.118;2023-02-28T19:26:12;28.10;34.20
12843;DHT22;35724;49.324;-123.118;2023-02-28T19:36:32;28.10;34.30
12843;DHT22;35724;49.324;-123.118;2023-02-28T19:47:04;28.10;34.20
12843;DHT22;35724;49.324;-123.118;2023-02-28T19:57:18;28.20;33.60
12843;DHT22;35724;49.324;-123.118;2023-02-28T20:07:33;28.30;33.30
12843;DHT22;35724;49.324;-123.118;2023-02-28T20:17:42;28.20;33.20
12843;DHT22;35724;49.324;-123.118;2023-02-28T20:28:18;28.10;33.40
12843;DHT22;35724;49.324;-123.118;2023-02-28T20:38:39;28.10;33.60
12843;DHT22;35724;49.324;-123.118;2023-02-28T21:13:30;28.00;34.20
12843;DHT22;35724;49.324;-123.118;2023-02-28T21:23:53;27.90;33.30
12843;DHT22;35724;49.324;-123.118;2023-02-28T21:34:35;27.70;31.80
12843;DHT22;35724;49.324;-123.118;2023-02-28T23:27:15;28.00;32.10
